KCLE/CLE METAR and TAF weather

Enter ICAO airport designator
Station Type Date Time Source
KCLE METAR 2018/01/17 05:51 UTC NOAA

KCLE 170551Z 21009KT 10SM FEW026 M16/M19 A3050 RMK AO2 SLP345 4/003 60000 T11611194 11133 21167 58004


Station Type Date Time Source
KCLE Decoded METAR 2018/01/17 05:51 UTC NOAA

CLEVELAND-HOPKINS INTERNATIONAL , OH, United States (KCLE) 41-24N 081-51W 236M
Jan 17, 2018 - 12:51 AM EST / 2018.01.17 0551 UTC
Wind: from the SSW (210 degrees) at 10 MPH (9 KT):0
Visibility: 10 mile(s):0
Sky conditions: mostly clear
Weather: 3 inches of snow on ground
Temperature: 3.0 F (-16.1 C)
Windchill: -13 F (-25 C):2
Dew Point: -2.9 F (-19.4 C)
Relative Humidity: 75%
Pressure (altimeter): 30.5 in. Hg (1032 hPa)
Pressure tendency: 0.01 inches (0.4 hPa) lower than three hours ago
ob: KCLE 170551Z 21009KT 10SM FEW026 M16/M19 A3050 RMK AO2 SLP345 4/003 60000 T11611194 11133 21167 58004
cycle: 6

Station Type Date Time Source
KCLE TAF 2018/01/17 06:46 UTC NOAA

TAF KCLE 170543Z 1706/1812 22007KT P6SM SCT025
TEMPO 1706/1707 BKN025
FM170700 23007KT P6SM OVC020
FM171800 23010KT P6SM BKN035
FM172300 23010KT P6SM SCT030 BKN150


Example: see airport list